Time;durP1;ratioP1;P1;durP2;ratioP2;P2;SDS_P1;SDS_P2;PMS_P1;PMS_P2;Temp;Humidity;BMP_temperature;BMP_pressure;BME280_temperature;BME280_humidity;BME280_pressure;Samples;Min_cycle;Max_cycle;Signal;HPM_P1;HPM_P2
2022/08/08 00:01:57;;;;;;;3.50;2.80;;;;;;;15.52;81.81;102482.50;4994023;28;20497;-72
2022/08/08 00:04:34;;;;;;;3.95;3.08;;;;;;;15.48;82.37;102476.03;4993248;28;20018;-72
2022/08/08 00:07:05;;;;;;;9.25;3.33;;;;;;;15.49;82.35;102482.84;4993819;28;20022;-72
2022/08/08 00:09:47;;;;;;;8.13;3.25;;;;;;;15.39;82.22;102480.47;4993857;28;20034;-72
2022/08/08 00:12:19;;;;;;;5.72;3.17;;;;;;;15.37;82.69;102476.47;4992558;28;20157;-72
2022/08/08 00:14:51;;;;;;;4.30;3.00;;;;;;;15.29;82.71;102467.72;4993871;28;20022;-73
2022/08/08 00:17:16;;;;;;;5.35;3.28;;;;;;;15.32;82.59;102469.97;4993720;28;20109;-72
2022/08/08 00:19:49;;;;;;;8.77;3.33;;;;;;;15.38;82.45;102471.06;4992594;28;20461;-73
2022/08/08 00:22:21;;;;;;;7.38;3.25;;;;;;;15.30;82.52;102471.94;4993635;28;20321;-72
2022/08/08 00:24:55;;;;;;;6.22;3.20;;;;;;;15.28;82.99;102476.53;4993797;28;20429;-72
2022/08/08 00:27:21;;;;;;;9.00;3.20;;;;;;;15.29;83.31;102474.72;4993604;28;20026;-72
2022/08/08 00:30:07;;;;;;;6.95;2.90;;;;;;;15.43;82.21;102475.75;4992525;28;20030;-73
2022/08/08 00:32:42;;;;;;;4.78;3.05;;;;;;;15.31;82.41;102464.97;4993315;28;20038;-73
2022/08/08 00:35:30;;;;;;;6.80;3.05;;;;;;;15.37;82.21;102464.25;4993773;28;20034;-73
2022/08/08 00:37:59;;;;;;;4.93;3.08;;;;;;;15.35;82.20;102463.59;4992389;28;20042;-73
2022/08/08 00:40:27;;;;;;;5.95;3.03;;;;;;;15.38;81.68;102463.25;4993620;28;20032;-73
2022/08/08 00:43:09;;;;;;;5.00;2.97;;;;;;;15.18;82.35;102462.94;4993585;28;20034;-73
2022/08/08 00:45:54;;;;;;;6.22;2.92;;;;;;;15.14;83.55;102451.28;4992330;28;20030;-73
2022/08/08 00:48:43;;;;;;;5.10;3.10;;;;;;;15.25;82.49;102458.66;4992249;28;20129;-73
2022/08/08 00:51:08;;;;;;;7.28;3.25;;;;;;;15.14;82.58;102464.28;4992143;28;20117;-73
2022/08/08 00:53:54;;;;;;;5.23;3.10;;;;;;;15.10;82.40;102452.59;4993637;28;20556;-73
2022/08/08 00:56:44;;;;;;;6.55;3.03;;;;;;;15.12;82.36;102454.03;4993387;28;20673;-73
2022/08/08 00:59:47;;;;;;;5.40;3.30;;;;;;;15.03;82.40;102459.50;4992244;28;20505;-72
2022/08/08 01:02:43;;;;;;;4.90;2.83;;;;;;;15.05;82.73;102458.34;4993368;28;20101;-72
2022/08/08 01:05:45;;;;;;;5.13;3.00;;;;;;;15.07;82.27;102471.16;4992131;28;20326;-72
2022/08/08 01:08:39;;;;;;;4.53;3.13;;;;;;;15.07;82.23;102468.56;4992067;28;20034;-72
2022/08/08 01:11:13;;;;;;;5.63;3.00;;;;;;;15.01;82.56;102469.28;4992040;28;20022;-73
2022/08/08 01:14:07;;;;;;;5.53;3.20;;;;;;;14.93;83.20;102472.72;4993345;28;20110;-72
2022/08/08 01:16:50;;;;;;;;;;;;;;;14.92;82.97;102467.72;4997306;28;20034;-72
2022/08/08 01:20:00;;;;;;;4.82;3.20;;;;;;;14.91;83.24;102464.31;4997025;28;19916;-72
2022/08/08 01:23:04;;;;;;;5.75;3.08;;;;;;;14.83;83.85;102472.97;4995345;28;20050;-73
2022/08/08 01:25:57;;;;;;;5.90;3.33;;;;;;;14.81;84.10;102477.53;4995578;28;20385;-72
2022/08/08 01:28:58;;;;;;;6.30;3.33;;;;;;;14.83;84.47;102470.38;4995620;28;20041;-72
2022/08/08 01:31:50;;;;;;;5.88;2.90;;;;;;;14.97;83.84;102466.22;4996716;28;20030;-72
2022/08/08 01:34:55;;;;;;;4.47;2.70;;;;;;;14.97;83.48;102468.00;4995294;28;20033;-72
2022/08/08 01:37:42;;;;;;;5.47;2.78;;;;;;;14.96;83.50;102475.03;4996705;28;20109;-73
2022/08/08 01:40:26;;;;;;;5.15;2.97;;;;;;;14.84;84.08;102465.97;4996443;28;20121;-73
2022/08/08 01:43:10;;;;;;;4.28;2.90;;;;;;;14.96;83.76;102464.59;4996430;28;20073;-73
2022/08/08 01:46:00;;;;;;;7.75;3.13;;;;;;;15.03;84.16;102464.72;4996423;28;20022;-73
2022/08/08 01:49:07;;;;;;;6.28;3.17;;;;;;;14.96;83.47;102456.78;4996321;28;20061;-73
2022/08/08 01:51:59;;;;;;;4.10;3.10;;;;;;;14.93;83.58;102459.72;4975902;28;20041;-73
2022/08/08 01:54:43;;;;;;;4.65;2.92;;;;;;;14.87;83.49;102442.19;4996181;28;20034;-73
2022/08/08 01:57:16;;;;;;;5.38;3.08;;;;;;;15.00;82.99;102450.25;4996116;28;20034;-73
2022/08/08 01:59:41;;;;;;;;;;;;;;;14.96;83.35;102456.78;4995351;28;20015;-73
2022/08/08 02:02:29;;;;;;;4.78;2.72;;;;;;;14.83;83.58;102456.56;4996123;28;20419;-73
2022/08/08 02:05:30;;;;;;;4.75;2.95;;;;;;;14.79;83.60;102463.91;4994775;28;20030;-73
2022/08/08 02:08:09;;;;;;;6.70;2.90;;;;;;;14.86;83.38;102458.81;4995938;28;20018;-73
2022/08/08 02:10:58;;;;;;;5.03;2.95;;;;;;;14.90;83.45;102462.66;4995975;28;20048;-73
2022/08/08 02:13:31;;;;;;;4.47;2.67;;;;;;;14.67;83.65;102457.47;4995885;28;20022;-73
2022/08/08 02:16:04;;;;;;;4.60;2.88;;;;;;;14.67;84.42;102462.69;4995913;28;20031;-73
2022/08/08 02:18:52;;;;;;;4.40;2.70;;;;;;;14.63;84.22;102464.81;4995781;28;20124;-73
2022/08/08 02:24:38;;;;;;;4.80;2.53;;;;;;;14.64;83.29;102466.47;4996009;28;20072;-73
2022/08/08 02:27:17;;;;;;;4.38;2.63;;;;;;;14.65;83.23;102469.88;4993819;28;20015;-73
2022/08/08 02:30:05;;;;;;;4.72;2.80;;;;;;;14.41;84.47;102470.78;4995656;28;20426;-73
2022/08/08 02:32:49;;;;;;;4.57;2.60;;;;;;;14.49;84.45;102477.72;4994459;28;20022;-73
2022/08/08 02:35:18;;;;;;;3.45;2.58;;;;;;;14.64;83.39;102469.06;4994212;28;20018;-73
2022/08/08 02:38:08;;;;;;;7.70;2.80;;;;;;;14.44;83.12;102473.84;4994104;28;20053;-73
2022/08/08 02:41:10;;;;;;;3.20;2.40;;;;;;;14.37;84.28;102479.91;4995500;28;20355;-73
2022/08/08 02:43:57;;;;;;;4.78;2.55;;;;;;;14.38;84.04;102469.31;4995480;28;20088;-73
2022/08/08 02:46:28;;;;;;;3.78;2.75;;;;;;;14.32;84.54;102477.81;4994060;28;20026;-73
2022/08/08 02:49:25;;;;;;;6.07;2.70;;;;;;;14.24;84.71;102470.03;4995247;28;20105;-73
2022/08/08 02:52:20;;;;;;;4.63;2.83;;;;;;;14.20;85.09;102466.16;4995180;28;20039;-73
2022/08/08 02:55:30;;;;;;;4.43;2.67;;;;;;;14.38;84.76;102465.91;4995121;28;20081;-73
2022/08/08 02:58:23;;;;;;;5.35;2.70;;;;;;;14.43;84.07;102484.41;4995090;28;20080;-73
2022/08/08 03:01:45;;;;;;;4.53;2.85;;;;;;;14.48;83.85;102479.53;4995094;28;20106;-73
2022/08/08 03:04:38;;;;;;;4.43;2.25;;;;;;;14.50;83.85;102481.94;4954172;29;20054;-73
2022/08/08 03:07:26;;;;;;;;;;;;;;;14.52;84.32;102478.22;4954659;29;20031;-73
2022/08/08 03:10:34;;;;;;;6.35;2.80;;;;;;;14.56;83.86;102481.31;4990956;28;19917;-73
2022/08/08 03:13:37;;;;;;;6.13;2.78;;;;;;;14.52;84.74;102480.81;4984753;28;20486;-73
2022/08/08 03:16:18;;;;;;;3.72;2.45;;;;;;;14.30;84.00;102464.19;4994598;28;20029;-73
2022/08/08 03:18:52;;;;;;;5.30;2.72;;;;;;;14.25;85.31;102476.88;4994748;28;20152;-73
2022/08/08 03:21:18;;;;;;;5.18;2.70;;;;;;;14.13;85.73;102486.84;4994598;28;20521;-73
2022/08/08 03:23:43;;;;;;;5.63;2.70;;;;;;;14.11;85.68;102485.38;4994553;28;20102;-73
2022/08/08 03:26:08;;;;;;;6.95;2.70;;;;;;;14.16;85.56;102494.31;4994575;28;20288;-73
2022/08/08 03:28:36;;;;;;;5.10;2.65;;;;;;;14.09;85.63;102500.34;4994581;28;20495;-73
2022/08/08 03:33:16;;;;;;;6.43;2.92;;;;;;;14.07;85.86;102500.50;4994547;28;20041;-72
2022/08/08 03:33:47;;;;;;;3.75;2.75;;;;;;;14.06;85.50;102485.88;4994514;28;20035;-73
2022/08/08 03:36:14;;;;;;;4.90;2.50;;;;;;;14.17;85.08;102503.72;4994225;28;20030;-73
2022/08/08 03:38:39;;;;;;;5.00;2.92;;;;;;;14.13;84.83;102512.84;4992224;28;20036;-73
2022/08/08 03:41:05;;;;;;;5.72;2.80;;;;;;;13.98;86.08;102506.69;5009386;28;20026;-73
2022/08/08 03:43:30;;;;;;;4.47;2.75;;;;;;;14.12;85.54;102502.59;4994180;28;20072;-73
2022/08/08 03:45:55;;;;;;;4.47;2.60;;;;;;;14.13;85.42;102499.84;4994045;28;20390;-73
2022/08/08 03:48:21;;;;;;;5.50;2.70;;;;;;;14.13;85.14;102509.44;4994255;28;20081;-73
2022/08/08 03:50:48;;;;;;;7.85;3.10;;;;;;;14.14;85.51;102505.84;4994189;28;20038;-73
2022/08/08 03:53:16;;;;;;;5.35;2.88;;;;;;;14.07;85.87;102505.72;4992821;28;20053;-72
2022/08/08 03:55:45;;;;;;;3.78;2.78;;;;;;;14.05;85.80;102506.84;4992709;28;20034;-73
2022/08/08 03:58:18;;;;;;;3.35;2.72;;;;;;;14.08;85.95;102507.31;4994125;28;20510;-73
2022/08/08 04:00:55;;;;;;;4.15;2.90;;;;;;;14.05;86.02;102507.66;4992801;28;20474;-73
2022/08/08 04:03:21;;;;;;;4.50;2.90;;;;;;;14.06;86.59;102509.28;4992720;28;20033;-73
2022/08/08 04:05:47;;;;;;;4.68;3.00;;;;;;;14.03;86.72;102519.19;4993826;28;20378;-73
2022/08/08 04:08:20;;;;;;;6.30;3.00;;;;;;;14.05;86.63;102514.66;4993883;28;20026;-73
2022/08/08 04:10:48;;;;;;;7.45;2.90;;;;;;;14.05;85.77;102512.88;4993851;28;20030;-73
2022/08/08 04:13:13;;;;;;;4.60;2.90;;;;;;;13.79;86.82;102528.69;4993902;28;20030;-73
2022/08/08 04:15:39;;;;;;;4.05;2.95;;;;;;;13.97;87.48;102526.69;4992512;28;20437;-72
2022/08/08 04:18:05;;;;;;;5.72;2.78;;;;;;;14.16;86.88;102532.50;4992498;28;20030;-73
2022/08/08 04:20:30;;;;;;;8.18;3.10;;;;;;;14.20;86.80;102521.56;4993757;28;20085;-73
2022/08/08 04:22:56;;;;;;;4.65;3.00;;;;;;;14.20;86.89;102521.56;4993611;28;20042;-73
2022/08/08 04:25:21;;;;;;;5.05;2.92;;;;;;;14.23;87.49;102530.81;4993893;28;20029;-73
2022/08/08 04:27:46;;;;;;;5.18;2.95;;;;;;;14.25;87.56;102528.06;4993649;28;20481;-73
2022/08/08 04:30:12;;;;;;;6.63;3.55;;;;;;;14.09;87.43;102521.13;4993887;28;20042;-73
2022/08/08 04:32:38;;;;;;;6.75;3.20;;;;;;;14.00;88.23;102521.16;4992404;28;20057;-73
2022/08/08 04:35:04;;;;;;;6.82;3.10;;;;;;;13.92;87.42;102520.34;4993671;28;20037;-73
2022/08/08 04:37:29;;;;;;;7.57;3.05;;;;;;;13.98;87.74;102520.53;4993551;28;20457;-73
2022/08/08 04:39:55;;;;;;;4.35;2.80;;;;;;;14.03;87.25;102529.59;4993644;28;20367;-73
2022/08/08 04:42:21;;;;;;;3.85;2.58;;;;;;;14.08;86.85;102530.72;4992347;28;20026;-73
2022/08/08 04:44:47;;;;;;;4.22;2.67;;;;;;;13.98;87.33;102536.13;4993568;28;20037;-74
2022/08/08 04:47:12;;;;;;;4.25;2.83;;;;;;;13.97;87.34;102526.69;4993708;28;20022;-72
2022/08/08 04:49:37;;;;;;;4.63;2.80;;;;;;;14.15;87.52;102536.06;4994759;28;20037;-72
2022/08/08 04:52:03;;;;;;;4.88;3.08;;;;;;;14.30;86.79;102541.34;4997330;28;20030;-72
2022/08/08 04:54:28;;;;;;;6.82;3.00;;;;;;;14.26;87.17;102538.28;4996038;28;20038;-71
2022/08/08 04:56:54;;;;;;;10.48;3.40;;;;;;;14.24;87.13;102532.44;4997249;28;20022;-72
2022/08/08 04:59:19;;;;;;;7.15;3.30;;;;;;;14.40;86.35;102534.19;4997292;28;20026;-72
2022/08/08 05:01:45;;;;;;;5.25;3.00;;;;;;;14.35;86.86;102536.47;4997238;28;20092;-72
2022/08/08 05:04:10;;;;;;;5.22;3.00;;;;;;;14.35;87.11;102532.06;4997130;28;20426;-72
2022/08/08 05:06:36;;;;;;;5.63;3.00;;;;;;;14.50;85.88;102537.41;4997086;28;20022;-72
2022/08/08 05:09:02;;;;;;;4.97;3.17;;;;;;;14.70;85.40;102537.78;4995862;28;20022;-72
2022/08/08 05:11:27;;;;;;;5.07;3.30;;;;;;;14.68;85.33;102549.38;4997127;28;20026;-72
2022/08/08 05:13:53;;;;;;;7.80;2.97;;;;;;;14.63;85.47;102542.88;4996812;28;20540;-72
2022/08/08 05:16:18;;;;;;;5.35;3.10;;;;;;;14.75;84.96;102537.28;4995641;28;20062;-72
2022/08/08 05:18:44;;;;;;;4.50;3.03;;;;;;;14.87;84.32;102546.31;4995550;28;20052;-72
2022/08/08 05:21:09;;;;;;;4.95;2.83;;;;;;;14.97;83.67;102549.50;4996682;28;20062;-72
2022/08/08 05:23:34;;;;;;;8.18;3.20;;;;;;;14.89;84.13;102547.75;4995492;28;20121;-72
2022/08/08 05:26:01;;;;;;;8.07;3.58;;;;;;;15.00;84.18;102541.34;4994372;28;20386;-72
2022/08/08 05:28:27;;;;;;;3.92;2.80;;;;;;;15.16;83.71;102553.44;4995479;28;20022;-72
2022/08/08 05:30:52;;;;;;;4.25;3.05;;;;;;;15.26;83.28;102546.22;4996674;28;20057;-72
2022/08/08 05:33:18;;;;;;;6.95;3.10;;;;;;;15.52;83.31;102558.84;4995470;28;20109;-72
2022/08/08 05:35:44;;;;;;;5.00;2.90;;;;;;;15.90;81.75;102547.63;5007664;28;20041;-74
2022/08/08 05:38:17;;;;;;;4.72;3.00;;;;;;;15.91;81.59;102542.25;5006164;28;20482;-72
2022/08/08 05:40:51;;;;;;;5.28;2.78;;;;;;;16.01;81.55;102545.38;5027427;28;20030;-73
2022/08/08 05:43:25;;;;;;;5.90;3.08;;;;;;;16.22;81.21;102543.84;5010228;28;20026;-72
2022/08/08 05:45:59;;;;;;;5.75;2.85;;;;;;;16.35;81.01;102541.41;5011155;28;20019;-74
2022/08/08 05:48:26;;;;;;;5.15;3.10;;;;;;;16.43;80.33;102551.75;5015184;28;20390;-73
2022/08/08 05:50:51;;;;;;;7.65;3.00;;;;;;;16.97;78.63;102555.75;5006838;28;20033;-73
2022/08/08 05:53:24;;;;;;;4.38;3.10;;;;;;;17.30;76.67;102560.47;4995668;28;20026;-73
2022/08/08 05:55:51;;;;;;;6.45;3.08;;;;;;;17.56;75.95;102555.44;4998248;28;20029;-74
2022/08/08 05:58:18;;;;;;;9.35;3.13;;;;;;;17.69;75.53;102546.88;5009561;28;20026;-74
2022/08/08 06:00:46;;;;;;;6.65;3.15;;;;;;;18.04;74.06;102557.41;5011392;28;20030;-74
2022/08/08 06:03:15;;;;;;;3.83;2.95;;;;;;;18.30;72.77;102548.88;5008713;28;20042;-74
2022/08/08 06:05:57;;;;;;;6.55;2.80;;;;;;;19.96;66.23;102537.69;4999617;28;20417;-73
2022/08/08 06:08:33;;;;;;;6.72;2.60;;;;;;;23.65;53.57;102548.16;4999963;28;20097;-72
2022/08/08 06:10:59;;;;;;;6.60;2.70;;;;;;;23.36;53.85;102557.00;4998985;28;20022;-74
2022/08/08 06:13:27;;;;;;;5.55;2.30;;;;;;;21.51;58.71;102564.47;4995684;28;20025;-73
2022/08/08 06:15:54;;;;;;;6.60;2.10;;;;;;;26.52;45.61;102565.84;4994285;28;20425;-72
2022/08/08 06:18:22;;;;;;;5.35;2.30;;;;;;;28.97;39.81;102564.25;4994429;28;20026;-73
2022/08/08 06:20:51;;;;;;;6.13;2.00;;;;;;;28.25;38.92;102559.94;4994016;28;20030;-73
2022/08/08 06:23:16;;;;;;;2.33;1.50;;;;;;;24.01;49.53;102570.03;4994138;28;20026;-73
2022/08/08 06:25:42;;;;;;;4.00;1.73;;;;;;;25.46;47.31;102561.66;4995377;28;20084;-73
2022/08/08 06:28:24;;;;;;;3.88;1.95;;;;;;;27.26;42.25;102566.97;4994232;28;20494;-73
2022/08/08 06:30:52;;;;;;;4.85;2.00;;;;;;;28.68;39.05;102563.19;4998649;28;20057;-76
2022/08/08 06:33:19;;;;;;;6.93;1.88;;;;;;;29.06;38.36;102561.88;5004816;28;20018;-78
2022/08/08 06:35:46;;;;;;;6.07;2.00;;;;;;;30.76;35.19;102575.94;5004348;28;20069;-74
2022/08/08 06:38:17;;;;;;;7.07;1.88;;;;;;;30.89;34.71;102580.66;4995454;28;20089;-74
2022/08/08 06:40:43;;;;;;;5.32;1.80;;;;;;;32.07;33.40;102568.63;4995358;28;20102;-74
2022/08/08 06:43:09;;;;;;;4.00;1.80;;;;;;;31.57;33.39;102569.00;4994086;28;20033;-74
2022/08/08 06:45:38;;;;;;;10.60;2.20;;;;;;;31.70;33.52;102568.28;4994396;28;20026;-74
2022/08/08 06:48:04;;;;;;;6.70;2.00;;;;;;;30.13;35.64;102569.47;4994116;28;20041;-73
2022/08/08 06:50:31;;;;;;;5.32;1.70;;;;;;;29.68;36.59;102565.97;4994978;28;20471;-74
2022/08/08 06:52:59;;;;;;;5.00;1.70;;;;;;;31.01;35.13;102565.03;4994813;28;20053;-73
2022/08/08 06:55:25;;;;;;;5.07;1.67;;;;;;;31.21;34.25;102579.25;4995208;28;20030;-74
2022/08/08 06:57:51;;;;;;;4.35;1.52;;;;;;;31.09;34.38;102566.31;4993691;28;20030;-74
2022/08/08 07:00:17;;;;;;;4.22;1.70;;;;;;;32.23;32.49;102556.59;5005973;28;20033;-76
2022/08/08 07:02:50;;;;;;;6.68;1.60;;;;;;;33.02;30.87;102566.53;4994732;28;20042;-74
2022/08/08 07:05:18;;;;;;;5.93;1.70;;;;;;;32.10;32.53;102558.13;4994625;28;20512;-74
2022/08/08 07:07:52;;;;;;;4.43;1.60;;;;;;;31.54;33.74;102566.91;4994503;28;20326;-74
2022/08/08 07:10:20;;;;;;;5.60;1.70;;;;;;;32.12;32.72;102571.22;4994512;28;20038;-72
2022/08/08 07:12:48;;;;;;;7.22;1.63;;;;;;;32.24;33.04;102573.44;4992969;28;20370;-72
2022/08/08 07:15:15;;;;;;;4.50;1.70;;;;;;;32.71;32.57;102577.78;4993099;28;20037;-72
2022/08/08 07:17:48;;;;;;;4.38;1.70;;;;;;;32.57;31.80;102572.41;4995334;28;20061;-73
2022/08/08 07:20:19;;;;;;;3.60;1.80;;;;;;;33.01;31.66;102579.16;4994357;28;20077;-72
2022/08/08 07:23:02;;;;;;;4.50;1.30;;;;;;;32.68;31.67;102578.34;4993043;28;20055;-72
2022/08/08 07:25:33;;;;;;;3.28;1.40;;;;;;;32.37;32.33;102564.69;4993034;28;20277;-72
2022/08/08 07:28:11;;;;;;;6.10;1.60;;;;;;;32.31;33.09;102581.88;4992964;28;20033;-73
2022/08/08 07:30:38;;;;;;;4.57;1.40;;;;;;;32.91;31.74;102589.22;4994889;28;20023;-72
2022/08/08 07:33:04;;;;;;;5.00;1.45;;;;;;;32.69;30.98;102587.22;4995887;28;20037;-73
2022/08/08 07:35:30;;;;;;;6.45;1.50;;;;;;;32.94;30.87;102589.41;4999446;28;20026;-74
2022/08/08 07:37:57;;;;;;;5.35;1.48;;;;;;;31.42;34.42;102583.34;4996358;28;20470;-74
2022/08/08 07:40:26;;;;;;;4.72;1.40;;;;;;;30.13;36.43;102593.44;4996378;28;20065;-73
2022/08/08 07:42:53;;;;;;;5.63;1.48;;;;;;;26.36;44.01;102587.94;4994238;28;20097;-72
2022/08/08 07:45:19;;;;;;;4.75;1.33;;;;;;;24.36;49.31;102581.53;4994686;28;20038;-73
2022/08/08 07:47:44;;;;;;;5.47;1.45;;;;;;;23.58;51.32;102591.53;4994624;28;20417;-73
2022/08/08 07:50:10;;;;;;;5.82;1.83;;;;;;;22.98;53.43;102585.41;4994941;28;20045;-74
2022/08/08 07:52:37;;;;;;;4.65;1.52;;;;;;;22.81;54.39;102592.31;4996095;28;20547;-73
2022/08/08 07:55:16;;;;;;;4.65;1.30;;;;;;;22.79;53.85;102585.66;4995690;28;20441;-73
2022/08/08 07:58:07;;;;;;;4.82;1.23;;;;;;;22.52;55.29;102593.94;4997017;28;20022;-73
2022/08/08 08:00:52;;;;;;;4.93;1.55;;;;;;;22.71;54.23;102577.06;4994381;28;20474;-72
2022/08/08 08:03:40;;;;;;;4.20;1.45;;;;;;;22.57;55.86;102611.72;4997834;28;20033;-73
2022/08/08 08:06:07;;;;;;;6.82;1.98;;;;;;;22.33;57.82;102603.72;4995723;28;20454;-73
2022/08/08 08:08:51;;;;;;;7.00;1.52;;;;;;;22.01;59.08;102601.22;4994618;28;20041;-73
2022/08/08 08:11:23;;;;;;;6.75;1.95;;;;;;;22.29;58.96;102613.88;4994774;28;20061;-73
2022/08/08 08:14:04;;;;;;;7.13;1.70;;;;;;;23.04;57.18;102606.63;4995101;28;20031;-72
2022/08/08 08:16:33;;;;;;;6.55;1.75;;;;;;;24.15;53.64;102607.56;4993387;28;20029;-73
2022/08/08 08:19:00;;;;;;;5.13;1.55;;;;;;;23.27;55.96;102605.88;4994600;28;20371;-73
2022/08/08 08:21:35;;;;;;;6.72;1.70;;;;;;;22.48;58.42;102613.88;4995419;28;20129;-73
2022/08/08 08:24:01;;;;;;;8.02;1.90;;;;;;;22.11;59.89;102607.81;4998281;28;20058;-73
2022/08/08 08:26:26;;;;;;;8.68;1.80;;;;;;;22.25;59.89;102618.00;5001229;28;20382;-72
2022/08/08 08:28:52;;;;;;;7.10;1.80;;;;;;;22.02;60.51;102616.00;5002276;28;20030;-73
2022/08/08 08:31:17;;;;;;;5.80;1.73;;;;;;;21.72;61.35;102618.53;5001439;28;20057;-73
2022/08/08 08:33:42;;;;;;;5.13;1.80;;;;;;;21.29;62.09;102615.81;5002255;28;20474;-73
2022/08/08 08:36:09;;;;;;;14.02;2.00;;;;;;;21.25;63.37;102627.78;5001857;28;20026;-74
2022/08/08 08:38:36;;;;;;;5.30;1.88;;;;;;;21.57;62.35;102623.31;5001599;28;20500;-73
2022/08/08 08:41:01;;;;;;;7.38;1.85;;;;;;;21.63;61.95;102632.97;5001590;28;20030;-73
2022/08/08 08:43:29;;;;;;;5.75;1.83;;;;;;;21.43;62.99;102635.75;5001974;28;20470;-72
2022/08/08 08:45:55;;;;;;;6.75;2.25;;;;;;;21.43;63.11;102637.59;5002364;28;20018;-72
2022/08/08 08:48:21;;;;;;;6.97;2.00;;;;;;;21.53;62.19;102637.91;5000299;28;20073;-73
2022/08/08 08:50:50;;;;;;;6.63;2.13;;;;;;;21.92;61.46;102643.81;5001590;28;20397;-72
2022/08/08 08:53:16;;;;;;;7.20;2.03;;;;;;;21.75;61.67;102641.78;5002014;28;20076;-74
2022/08/08 08:55:42;;;;;;;6.38;2.00;;;;;;;21.53;62.37;102641.34;5008113;28;20034;-73
2022/08/08 08:58:18;;;;;;;5.90;2.13;;;;;;;21.41;62.91;102640.44;5011117;28;20122;-75
2022/08/08 09:00:43;;;;;;;6.65;2.00;;;;;;;21.49;62.52;102645.44;5011020;28;20069;-74
2022/08/08 09:03:09;;;;;;;6.85;1.98;;;;;;;21.22;63.44;102651.88;5012067;28;20401;-75
2022/08/08 09:05:39;;;;;;;7.07;2.13;;;;;;;21.04;63.24;102640.25;5010131;28;20121;-75
2022/08/08 09:08:07;;;;;;;5.78;2.38;;;;;;;20.85;64.25;102641.97;5010331;28;20506;-75
2022/08/08 09:10:36;;;;;;;5.05;2.17;;;;;;;20.94;64.34;102645.16;5013333;28;20053;-73
2022/08/08 09:13:05;;;;;;;9.68;2.40;;;;;;;21.09;64.28;102648.31;5013853;28;20076;-74
2022/08/08 09:15:30;;;;;;;7.93;2.00;;;;;;;21.47;63.34;102654.56;5007229;28;20029;-75
2022/08/08 09:17:57;;;;;;;6.03;2.00;;;;;;;21.72;61.80;102651.91;5004199;28;20458;-77
2022/08/08 09:20:25;;;;;;;5.70;2.10;;;;;;;21.77;61.02;102646.81;5003010;28;20037;-72
2022/08/08 09:22:52;;;;;;;7.00;1.90;;;;;;;21.90;60.69;102659.84;5003229;28;20129;-74
2022/08/08 09:25:18;;;;;;;6.25;1.73;;;;;;;22.05;60.82;102657.66;5002918;28;20470;-74
2022/08/08 09:27:44;;;;;;;7.97;2.15;;;;;;;21.92;60.69;102663.06;5003124;28;20075;-71
2022/08/08 09:30:13;;;;;;;9.30;2.20;;;;;;;22.73;58.85;102659.34;5001444;28;20026;-74
2022/08/08 09:32:49;;;;;;;6.68;2.17;;;;;;;24.10;54.32;102657.63;5001065;28;20389;-72
2022/08/08 09:35:19;;;;;;;3.97;1.60;;;;;;;24.56;52.68;102647.19;5001465;28;20113;-72
2022/08/08 09:37:47;;;;;;;5.03;1.67;;;;;;;24.06;52.58;102651.22;4998519;28;20027;-73
2022/08/08 09:40:17;;;;;;;4.30;1.60;;;;;;;23.52;54.29;102647.88;4997216;28;20022;-73
2022/08/08 09:42:44;;;;;;;4.50;1.65;;;;;;;23.47;54.61;102643.28;4998328;28;20034;-74
2022/08/08 09:45:28;;;;;;;7.63;1.70;;;;;;;23.27;54.58;102648.88;4997694;28;20037;-72
2022/08/08 09:47:54;;;;;;;7.18;1.85;;;;;;;23.32;54.40;102645.56;4997685;28;20049;-73
2022/08/08 09:50:22;;;;;;;5.15;1.60;;;;;;;23.81;53.58;102657.53;4997145;28;20030;-73
2022/08/08 09:52:52;;;;;;;6.50;2.00;;;;;;;24.29;52.48;102648.50;4996362;28;20034;-73
2022/08/08 09:55:18;;;;;;;6.75;1.90;;;;;;;24.51;52.84;102651.38;4998934;28;20026;-73
2022/08/08 09:57:47;;;;;;;6.90;2.10;;;;;;;25.25;50.75;102653.19;4997088;28;20022;-73
2022/08/08 10:00:15;;;;;;;7.97;1.80;;;;;;;25.65;49.91;102653.00;4995383;28;20116;-73
2022/08/08 10:02:44;;;;;;;7.63;1.80;;;;;;;25.81;48.64;102647.94;4998989;28;20029;-72
2022/08/08 10:05:18;;;;;;;4.03;1.50;;;;;;;26.10;46.62;102649.41;4997095;28;20031;-72
2022/08/08 10:07:49;;;;;;;3.75;1.40;;;;;;;26.72;44.96;102652.75;4996328;28;20427;-72
2022/08/08 10:10:23;;;;;;;5.05;1.45;;;;;;;25.88;41.13;102648.56;4996226;28;20026;-72
2022/08/08 10:12:49;;;;;;;5.55;1.35;;;;;;;24.07;46.43;102650.97;4994941;28;20113;-72
2022/08/08 10:15:14;;;;;;;5.28;1.52;;;;;;;24.05;48.85;102646.94;4996095;28;20022;-72
2022/08/08 10:17:47;;;;;;;7.95;1.60;;;;;;;24.23;50.02;102649.47;4995262;28;20496;-72
2022/08/08 10:20:13;;;;;;;6.90;1.60;;;;;;;24.49;49.33;102650.00;4995815;28;20030;-73
2022/08/08 10:22:51;;;;;;;5.30;1.50;;;;;;;24.52;49.24;102650.31;4994315;28;20057;-72
2022/08/08 10:25:20;;;;;;;6.78;1.63;;;;;;;24.51;48.26;102643.44;4994540;28;20038;-72
2022/08/08 10:27:50;;;;;;;16.10;2.13;;;;;;;24.45;48.79;102643.56;4994587;28;20050;-73
2022/08/08 10:30:16;;;;;;;5.07;1.40;;;;;;;24.36;48.83;102639.66;4994380;28;20034;-73
2022/08/08 10:32:49;;;;;;;5.10;1.67;;;;;;;24.64;48.10;102644.97;4995609;28;20521;-72
2022/08/08 10:35:18;;;;;;;5.38;1.58;;;;;;;26.10;44.26;102648.59;4995562;28;20533;-73
2022/08/08 10:38:04;;;;;;;5.88;1.40;;;;;;;26.85;42.33;102647.03;4995597;28;20022;-74
2022/08/08 10:40:30;;;;;;;3.78;1.35;;;;;;;26.78;41.98;102646.44;4994236;28;20030;-73
2022/08/08 10:43:01;;;;;;;2.55;1.10;;;;;;;27.45;39.49;102627.34;4995578;28;20026;-73
2022/08/08 10:45:28;;;;;;;3.60;1.23;;;;;;;27.80;38.99;102635.81;4995309;28;20034;-72
2022/08/08 10:47:59;;;;;;;1.85;0.70;;;;;;;27.74;38.55;102634.94;5009740;28;20018;-73
2022/08/08 10:50:37;;;;;;;3.55;1.20;;;;;;;28.62;37.30;102636.88;4995335;28;20054;-73
2022/08/08 10:53:07;;;;;;;2.85;1.10;;;;;;;26.36;41.52;102647.06;4995125;28;20072;-73
2022/08/08 10:55:34;;;;;;;4.22;1.27;;;;;;;25.78;43.06;102640.44;4994376;28;20034;-72
2022/08/08 10:58:05;;;;;;;3.40;1.13;;;;;;;25.19;43.02;102611.81;4995485;28;20053;-72
2022/08/08 11:00:31;;;;;;;3.83;1.30;;;;;;;24.93;44.43;102629.88;4994521;28;20512;-72
2022/08/08 11:03:08;;;;;;;5.65;1.40;;;;;;;24.77;44.97;102631.50;4995392;28;20030;-72
2022/08/08 11:05:40;;;;;;;5.85;1.35;;;;;;;25.28;44.75;102628.09;4995544;28;20477;-73
2022/08/08 11:08:06;;;;;;;5.72;1.23;;;;;;;25.15;44.91;102631.88;4995457;28;20478;-72
2022/08/08 11:10:31;;;;;;;4.18;1.30;;;;;;;25.49;41.47;102634.50;4996736;28;20077;-72
2022/08/08 11:13:00;;;;;;;3.88;1.30;;;;;;;26.49;39.72;102633.38;4995306;28;20030;-72
2022/08/08 11:15:29;;;;;;;2.92;0.90;;;;;;;27.25;38.49;102629.88;4995318;28;20023;-73
2022/08/08 11:17:55;;;;;;;3.90;1.20;;;;;;;26.01;40.06;102629.69;4993668;28;20046;-73
2022/08/08 11:20:22;;;;;;;5.47;1.27;;;;;;;25.35;42.26;102629.53;4994825;28;20034;-73
2022/08/08 11:22:53;;;;;;;2.92;1.10;;;;;;;25.76;41.06;102622.19;4994642;28;20545;-73
2022/08/08 11:25:24;;;;;;;3.67;1.10;;;;;;;27.35;38.21;102621.97;4993349;28;20120;-73
2022/08/08 11:27:53;;;;;;;6.05;0.80;;;;;;;27.24;37.59;102615.00;4993394;28;20049;-72
2022/08/08 11:30:21;;;;;;;2.80;1.05;;;;;;;27.06;38.91;102618.81;4994649;28;20026;-73
2022/08/08 11:32:49;;;;;;;3.42;1.08;;;;;;;27.05;39.43;102617.22;4994445;28;20022;-73
2022/08/08 11:35:16;;;;;;;6.65;1.23;;;;;;;27.52;38.82;102603.22;4993285;28;20081;-73
2022/08/08 11:37:42;;;;;;;2.17;0.95;;;;;;;27.97;38.08;102609.06;4994215;28;20026;-74
2022/08/08 11:40:10;;;;;;;3.13;1.02;;;;;;;28.72;37.20;102614.81;4994326;28;20478;-74
2022/08/08 11:42:37;;;;;;;2.40;0.95;;;;;;;27.57;38.45;102600.59;4994241;28;20062;-73
2022/08/08 11:45:05;;;;;;;2.28;1.08;;;;;;;26.45;40.53;102618.25;4994228;28;20121;-72
2022/08/08 11:47:31;;;;;;;5.03;0.95;;;;;;;25.65;41.81;102615.13;4992960;28;20386;-73
2022/08/08 11:50:00;;;;;;;5.13;1.38;;;;;;;25.37;42.13;102608.91;4994212;28;20081;-72
2022/08/08 11:52:26;;;;;;;2.65;1.10;;;;;;;27.05;39.25;102608.47;4992826;28;20026;-72
2022/08/08 11:54:52;;;;;;;4.50;1.10;;;;;;;27.81;39.21;102603.66;4994073;28;20030;-72
2022/08/08 11:57:17;;;;;;;3.00;1.40;;;;;;;28.05;37.56;102596.06;4992996;28;20429;-73